Terminal Aerodrome Forecast
Issued by NWS

Home | Current Version | Previous Version | Text Only | Print | Product List | Glossary Off
Versions: 1 2 3 4 5 6 7 8 9 10 11 12 13

000
FTUS45 KGGW 210520
TAFSDY
TAF
KSDY 210520Z 2106/2206 21006KT P6SM BKN060
     FM211200 23008KT P6SM SCT050
     FM211600 22008KT P6SM BKN050
     FM220300 29008KT P6SM VCSH BKN020=

USA.gov is the U.S. government's official web portal to all federal, state and local government web resources and services.